Safford, AZ

6:36 AM MST on September 01, 2014 (GMT -0700)
Safford Regional | Change Station
CLOSE
Current Station
Airport
Location: Safford,
Elevation: 3176 ft
Nearby Weather Stations

Elev 3176 ft 32.86 °N, 109.64 °W | Updated 45 minutes ago

Clear
Clear
65 °F
Feels Like 65 °F
N
5
Wind Variable Wind from SE

Today
High -- | Low -- °F
--% Chance of Precip.
Yesterday
High -- | Low -- °F
Precip. -- in
5:53 AM 6:43 PM
Waxing Crescent, 41% visible
Pressure 29.82 in
Visibility 10.0 miles
Clouds Clear
Dew Point 41 °F
Humidity 42%
Rainfall 0.00 in
Snow Depth Not available.
UV 0 out of 12
Pollen 6.70 out of 12
Air Quality Not available.
Flu Activity Not available.
METAR KSAD 011251Z AUTO 13004KT 10SM CLR 18/05 A2998 RMK AO2 SLP097 T01830050

More Conditions Fewer Conditions

Pressure 29.82 in
Visibility 10.0 miles
Clouds Clear
Dew Point 41 °F
Humidity 42%
Rainfall 0.00 in
Snow Depth Not available.
UV 0 out of 12
Pollen 6.70 out of 12
Air Quality Not available.
Flu Activity Not available.
METAR KSAD 011251Z AUTO 13004KT 10SM CLR 18/05 A2998 RMK AO2 SLP097 T01830050

More Conditions Fewer Conditions

10-Day Weather Forecast

Almanac

Astronomy

Sep. 01, 2014 Rise Set
Actual Time 5:53 AM MST 6:43 PM MST
Civil Twilight 5:28 AM MST 7:08 PM MST
Nautical Twilight 4:58 AM MST 7:38 PM MST
Astronomical Twilight 4:28 AM MST 8:08 PM MST
Moon 12:20 PM MST 11:09 PM MST
Length of Visible Light 13h 40m
Length of Day
12h 49m
Tomorrow will be 1m 56s shorter.
Waxing Crescent, 41% of the Moon is Illuminated
Today
Waxing Crescent
Sep 2
First Quarter
Sep 8
Full
Sep 15
Last Quarter
Sep 24
New

Today's Extremes

State Highs State Lows

Community

WunderPhotos

Upload Photos

1,749,217 photos uploaded!

Nearby

Snow Depth

Station Depth Elevation
Hannagan Meadows 0 in 9020 ft
Wildcat 0 in 7850 ft
Beaver Head 34 in 7990 ft
Coronado Trail 0 in 8400 ft
Maverick Fork 0 in 9200 ft

Earthquake Activity

City Distance Mag. Time & Date
No recent earthquake activity has been reported nearby.
Minimum magnitude displayed is 2.5.

Coastal Water Temperatures

Place Temperature
No Stations Reporting

Nearby Weather Stations